sensor_id;sensor_type;location;lat;lon;timestamp;pressure;altitude;pressure_sealevel;temperature;humidity
83152;BME280;73381;58.502;8.624;2023-12-07T00:00:44;101119.19;;;-3.86;86.20
83152;BME280;73381;58.502;8.624;2023-12-07T00:03:48;101109.78;;;-3.92;86.23
83152;BME280;73381;58.502;8.624;2023-12-07T00:06:50;101099.47;;;-3.94;86.88
83152;BME280;73381;58.502;8.624;2023-12-07T00:09:52;101008.72;;;-4.51;86.67
83152;BME280;73381;58.502;8.624;2023-12-07T00:12:54;101103.72;;;-3.88;86.18
83152;BME280;73381;58.502;8.624;2023-12-07T00:15:56;101026.72;;;-4.41;85.95
83152;BME280;73381;58.502;8.624;2023-12-07T00:19:00;101024.94;;;-4.36;86.78
83152;BME280;73381;58.502;8.624;2023-12-07T00:22:02;101110.63;;;-3.92;85.53
83152;BME280;73381;58.502;8.624;2023-12-07T00:25:05;101092.69;;;-4.11;86.39
83152;BME280;73381;58.502;8.624;2023-12-07T00:28:07;101128.69;;;-3.93;85.88
83152;BME280;73381;58.502;8.624;2023-12-07T00:31:09;101114.91;;;-3.89;85.96
83152;BME280;73381;58.502;8.624;2023-12-07T00:34:13;101115.75;;;-3.89;86.53
83152;BME280;73381;58.502;8.624;2023-12-07T00:37:15;101113.19;;;-3.90;86.10
83152;BME280;73381;58.502;8.624;2023-12-07T00:40:17;101102.03;;;-3.97;86.84
83152;BME280;73381;58.502;8.624;2023-12-07T00:43:19;101096.97;;;-4.04;86.47
83152;BME280;73381;58.502;8.624;2023-12-07T00:46:20;101039.56;;;-4.38;86.32
83152;BME280;73381;58.502;8.624;2023-12-07T00:49:24;101066.97;;;-4.21;86.18
83152;BME280;73381;58.502;8.624;2023-12-07T00:52:26;101105.44;;;-3.90;86.92
83152;BME280;73381;58.502;8.624;2023-12-07T00:55:28;101117.50;;;-3.95;86.01
83152;BME280;73381;58.502;8.624;2023-12-07T00:58:30;101012.19;;;-4.53;86.56
83152;BME280;73381;58.502;8.624;2023-12-07T01:01:32;101107.19;;;-3.92;86.39
83152;BME280;73381;58.502;8.624;2023-12-07T01:04:36;101107.16;;;-3.89;86.85
83152;BME280;73381;58.502;8.624;2023-12-07T01:07:38;101114.00;;;-3.85;85.40
83152;BME280;73381;58.502;8.624;2023-12-07T01:10:40;101107.13;;;-3.86;86.20
83152;BME280;73381;58.502;8.624;2023-12-07T01:13:42;101115.75;;;-3.89;86.07
83152;BME280;73381;58.502;8.624;2023-12-07T01:16:44;101129.53;;;-3.91;85.60
83152;BME280;73381;58.502;8.624;2023-12-07T01:19:48;101105.50;;;-3.99;86.64
83152;BME280;73381;58.502;8.624;2023-12-07T01:22:49;101114.03;;;-3.88;85.83
83152;BME280;73381;58.502;8.624;2023-12-07T01:25:52;101114.84;;;-3.83;86.68
83152;BME280;73381;58.502;8.624;2023-12-07T01:28:53;101118.28;;;-3.79;85.57
83152;BME280;73381;58.502;8.624;2023-12-07T01:31:55;101124.28;;;-3.79;85.21
83152;BME280;73381;58.502;8.624;2023-12-07T01:34:59;101103.66;;;-3.82;85.40
83152;BME280;73381;58.502;8.624;2023-12-07T01:38:01;101105.38;;;-3.84;86.14
83152;BME280;73381;58.502;8.624;2023-12-07T01:41:03;101113.97;;;-3.82;85.54
83152;BME280;73381;58.502;8.624;2023-12-07T01:44:05;101109.66;;;-3.78;85.28
83152;BME280;73381;58.502;8.624;2023-12-07T01:47:07;101117.44;;;-3.80;87.11
83152;BME280;73381;58.502;8.624;2023-12-07T01:50:11;101134.59;;;-3.76;85.95
83152;BME280;73381;58.502;8.624;2023-12-07T01:53:15;101119.13;;;-3.77;85.23
83152;BME280;73381;58.502;8.624;2023-12-07T01:56:17;101049.81;;;-4.28;86.17
83152;BME280;73381;58.502;8.624;2023-12-07T01:59:19;101108.88;;;-3.88;86.58
83152;BME280;73381;58.502;8.624;2023-12-07T02:02:21;101032.66;;;-4.30;85.61
83152;BME280;73381;58.502;8.624;2023-12-07T02:05:25;101132.84;;;-3.72;85.30
83152;BME280;73381;58.502;8.624;2023-12-07T02:08:27;101146.59;;;-3.72;85.39
83152;BME280;73381;58.502;8.624;2023-12-07T02:11:30;101138.91;;;-3.76;86.96
83152;BME280;73381;58.502;8.624;2023-12-07T02:14:32;101138.03;;;-3.75;86.42
83152;BME280;73381;58.502;8.624;2023-12-07T02:17:36;101128.59;;;-3.82;85.56
83152;BME280;73381;58.502;8.624;2023-12-07T02:20:44;101101.16;;;-3.91;85.54
83152;BME280;73381;58.502;8.624;2023-12-07T02:23:47;101143.97;;;-3.69;86.16
83152;BME280;73381;58.502;8.624;2023-12-07T02:26:54;101131.94;;;-3.70;84.85
83152;BME280;73381;58.502;8.624;2023-12-07T02:29:56;101125.06;;;-3.69;85.61
83152;BME280;73381;58.502;8.624;2023-12-07T02:32:58;101136.22;;;-3.67;85.87
83152;BME280;73381;58.502;8.624;2023-12-07T02:36:00;101122.59;;;-3.80;86.00
83152;BME280;73381;58.502;8.624;2023-12-07T02:39:02;101085.81;;;-4.08;85.63
83152;BME280;73381;58.502;8.624;2023-12-07T02:42:07;101063.41;;;-4.03;85.97
83152;BME280;73381;58.502;8.624;2023-12-07T02:45:10;101069.44;;;-4.05;85.48
83152;BME280;73381;58.502;8.624;2023-12-07T02:48:12;101043.78;;;-4.21;84.20
83152;BME280;73381;58.502;8.624;2023-12-07T02:51:14;101107.03;;;-3.74;84.46
83152;BME280;73381;58.502;8.624;2023-12-07T02:54:16;101121.59;;;-3.65;84.23
83152;BME280;73381;58.502;8.624;2023-12-07T02:57:19;101136.19;;;-3.60;84.59
83152;BME280;73381;58.502;8.624;2023-12-07T03:00:21;101141.31;;;-3.56;85.54
83152;BME280;73381;58.502;8.624;2023-12-07T03:03:23;101031.72;;;-4.20;84.58
83152;BME280;73381;58.502;8.624;2023-12-07T03:06:25;101141.34;;;-3.60;84.18
83152;BME280;73381;58.502;8.624;2023-12-07T03:09:26;101137.84;;;-3.55;84.71
83152;BME280;73381;58.502;8.624;2023-12-07T03:12:30;101133.59;;;-3.60;85.34
83152;BME280;73381;58.502;8.624;2023-12-07T03:15:32;101085.69;;;-3.94;84.66
83152;BME280;73381;58.502;8.624;2023-12-07T03:18:33;101134.44;;;-3.58;83.53
83152;BME280;73381;58.502;8.624;2023-12-07T03:21:38;101137.81;;;-3.52;83.78
83152;BME280;73381;58.502;8.624;2023-12-07T03:24:45;101132.66;;;-3.52;84.56
83152;BME280;73381;58.502;8.624;2023-12-07T03:27:48;101127.53;;;-3.55;84.84
83152;BME280;73381;58.502;8.624;2023-12-07T03:30:50;101047.09;;;-4.09;84.65
83152;BME280;73381;58.502;8.624;2023-12-07T03:33:52;101133.53;;;-3.53;84.26
83152;BME280;73381;58.502;8.624;2023-12-07T03:36:54;101134.44;;;-3.58;84.58
83152;BME280;73381;58.502;8.624;2023-12-07T03:39:56;101108.75;;;-3.73;84.94
83152;BME280;73381;58.502;8.624;2023-12-07T03:43:00;101136.13;;;-3.55;84.39
83152;BME280;73381;58.502;8.624;2023-12-07T03:46:04;101105.25;;;-3.69;84.39
83152;BME280;73381;58.502;8.624;2023-12-07T03:49:06;101139.53;;;-3.48;84.26
83152;BME280;73381;58.502;8.624;2023-12-07T03:52:08;101068.50;;;-3.95;84.45
83152;BME280;73381;58.502;8.624;2023-12-07T03:55:10;101028.31;;;-4.22;84.01
83152;BME280;73381;58.502;8.624;2023-12-07T03:58:13;101143.91;;;-3.60;85.11
83152;BME280;73381;58.502;8.624;2023-12-07T04:01:15;101108.72;;;-3.70;83.82
83152;BME280;73381;58.502;8.624;2023-12-07T04:04:17;101107.88;;;-3.72;84.57
83152;BME280;73381;58.502;8.624;2023-12-07T04:07:19;101137.88;;;-3.59;83.40
83152;BME280;73381;58.502;8.624;2023-12-07T04:10:21;101141.34;;;-3.60;83.60
83152;BME280;73381;58.502;8.624;2023-12-07T04:13:24;101144.81;;;-3.62;84.31
83152;BME280;73381;58.502;8.624;2023-12-07T04:16:26;101108.75;;;-3.73;83.81
83152;BME280;73381;58.502;8.624;2023-12-07T04:19:28;101033.47;;;-4.21;84.05
83152;BME280;73381;58.502;8.624;2023-12-07T04:22:31;101103.66;;;-3.82;84.41
83152;BME280;73381;58.502;8.624;2023-12-07T04:25:33;101117.41;;;-3.77;84.79
83152;BME280;73381;58.502;8.624;2023-12-07T04:28:36;101126.81;;;-3.71;85.01
83152;BME280;73381;58.502;8.624;2023-12-07T04:31:38;101137.97;;;-3.69;84.08
83152;BME280;73381;58.502;8.624;2023-12-07T04:34:40;101114.84;;;-3.83;83.87
83152;BME280;73381;58.502;8.624;2023-12-07T04:37:42;101131.09;;;-3.70;83.30
83152;BME280;73381;58.502;8.624;2023-12-07T04:40:44;101126.81;;;-3.73;84.69
83152;BME280;73381;58.502;8.624;2023-12-07T04:43:47;101123.34;;;-3.69;83.19
83152;BME280;73381;58.502;8.624;2023-12-07T04:46:49;101120.75;;;-3.69;84.26
83152;BME280;73381;58.502;8.624;2023-12-07T04:49:52;101107.06;;;-3.77;84.41
83152;BME280;73381;58.502;8.624;2023-12-07T04:52:54;101114.78;;;-3.75;83.49
83152;BME280;73381;58.502;8.624;2023-12-07T04:55:56;101122.53;;;-3.74;83.16
83152;BME280;73381;58.502;8.624;2023-12-07T04:58:59;101122.47;;;-3.69;83.62
83152;BME280;73381;58.502;8.624;2023-12-07T05:02:02;101053.19;;;-4.15;84.07
83152;BME280;73381;58.502;8.624;2023-12-07T05:05:04;101129.41;;;-3.74;83.26
83152;BME280;73381;58.502;8.624;2023-12-07T05:08:07;101109.75;;;-3.89;84.67
83152;BME280;73381;58.502;8.624;2023-12-07T05:11:08;101136.31;;;-3.75;83.80
83152;BME280;73381;58.502;8.624;2023-12-07T05:14:12;101129.44;;;-3.77;83.98
83152;BME280;73381;58.502;8.624;2023-12-07T05:17:13;101055.78;;;-4.23;84.36
83152;BME280;73381;58.502;8.624;2023-12-07T05:20:16;101126.00;;;-3.76;83.22
83152;BME280;73381;58.502;8.624;2023-12-07T05:23:18;101120.06;;;-3.89;84.04
83152;BME280;73381;58.502;8.624;2023-12-07T05:26:19;101130.34;;;-3.84;84.56
83152;BME280;73381;58.502;8.624;2023-12-07T05:29:23;101121.84;;;-4.00;83.86
83152;BME280;73381;58.502;8.624;2023-12-07T05:32:25;101141.56;;;-3.89;84.12
83152;BME280;73381;58.502;8.624;2023-12-07T05:35:27;101148.47;;;-3.92;83.62
83152;BME280;73381;58.502;8.624;2023-12-07T05:38:29;101127.88;;;-4.01;83.54
83152;BME280;73381;58.502;8.624;2023-12-07T05:41:31;101124.41;;;-3.97;84.19
83152;BME280;73381;58.502;8.624;2023-12-07T05:44:34;101097.91;;;-4.18;84.46
83152;BME280;73381;58.502;8.624;2023-12-07T05:47:36;101129.66;;;-4.06;84.50
83152;BME280;73381;58.502;8.624;2023-12-07T05:50:44;101123.63;;;-4.10;84.25
83152;BME280;73381;58.502;8.624;2023-12-07T05:53:46;101136.47;;;-4.01;83.96
83152;BME280;73381;58.502;8.624;2023-12-07T05:56:48;101071.41;;;-4.44;84.33
83152;BME280;73381;58.502;8.624;2023-12-07T05:59:51;101126.16;;;-4.01;83.47
83152;BME280;73381;58.502;8.624;2023-12-07T06:02:54;101122.69;;;-3.98;83.72
83152;BME280;73381;58.502;8.624;2023-12-07T06:05:56;101121.88;;;-4.02;84.09
83152;BME280;73381;58.502;8.624;2023-12-07T06:08:58;101121.03;;;-4.04;83.78
83152;BME280;73381;58.502;8.624;2023-12-07T06:12:00;101123.59;;;-4.02;84.22
83152;BME280;73381;58.502;8.624;2023-12-07T06:15:04;101125.34;;;-4.09;83.53
83152;BME280;73381;58.502;8.624;2023-12-07T06:18:06;101125.34;;;-4.06;84.25
83152;BME280;73381;58.502;8.624;2023-12-07T06:21:08;101097.97;;;-4.30;83.52
83152;BME280;73381;58.502;8.624;2023-12-07T06:24:10;101127.13;;;-4.15;83.46
83152;BME280;73381;58.502;8.624;2023-12-07T06:27:12;101115.06;;;-4.13;83.83
83152;BME280;73381;58.502;8.624;2023-12-07T06:30:15;101111.66;;;-4.15;83.01
83152;BME280;73381;58.502;8.624;2023-12-07T06:33:17;100903.69;;;-5.50;83.54
83152;BME280;73381;58.502;8.624;2023-12-07T06:36:19;101122.00;;;-4.23;83.93
83152;BME280;73381;58.502;8.624;2023-12-07T06:39:21;101123.78;;;-4.33;84.37
83152;BME280;73381;58.502;8.624;2023-12-07T06:42:23;101125.53;;;-4.41;83.36
83152;BME280;73381;58.502;8.624;2023-12-07T06:45:27;101136.69;;;-4.39;82.70
83152;BME280;73381;58.502;8.624;2023-12-07T06:48:29;101099.06;;;-4.72;83.53
83152;BME280;73381;58.502;8.624;2023-12-07T06:51:31;101137.53;;;-4.37;82.96
83152;BME280;73381;58.502;8.624;2023-12-07T06:54:33;101140.13;;;-4.32;83.15
83152;BME280;73381;58.502;8.624;2023-12-07T06:57:35;101140.13;;;-4.40;82.99
83152;BME280;73381;58.502;8.624;2023-12-07T07:00:38;101051.06;;;-4.90;83.79
83152;BME280;73381;58.502;8.624;2023-12-07T07:03:40;101062.16;;;-4.83;83.13
83152;BME280;73381;58.502;8.624;2023-12-07T07:06:42;101128.13;;;-4.44;83.22
83152;BME280;73381;58.502;8.624;2023-12-07T07:09:44;101095.66;;;-4.77;83.16
83152;BME280;73381;58.502;8.624;2023-12-07T07:12:46;101154.81;;;-4.54;82.82
83152;BME280;73381;58.502;8.624;2023-12-07T07:15:50;101147.97;;;-4.60;83.97
83152;BME280;73381;58.502;8.624;2023-12-07T07:18:52;101123.13;;;-4.81;84.08
83152;BME280;73381;58.502;8.624;2023-12-07T07:21:54;101159.16;;;-4.62;84.49
83152;BME280;73381;58.502;8.624;2023-12-07T07:24:56;101159.16;;;-4.65;84.88
83152;BME280;73381;58.502;8.624;2023-12-07T07:27:58;101083.72;;;-5.01;84.48
83152;BME280;73381;58.502;8.624;2023-12-07T07:31:02;101080.22;;;-4.88;83.50
83152;BME280;73381;58.502;8.624;2023-12-07T07:34:04;101057.91;;;-4.89;83.56
83152;BME280;73381;58.502;8.624;2023-12-07T07:37:06;101125.59;;;-4.47;83.48
83152;BME280;73381;58.502;8.624;2023-12-07T07:40:10;101128.16;;;-4.53;83.36
83152;BME280;73381;58.502;8.624;2023-12-07T07:43:12;101014.31;;;-5.31;84.36
83152;BME280;73381;58.502;8.624;2023-12-07T07:46:15;101111.97;;;-4.80;83.85
83152;BME280;73381;58.502;8.624;2023-12-07T07:49:17;101114.56;;;-4.76;85.00
83152;BME280;73381;58.502;8.624;2023-12-07T07:52:19;101111.06;;;-4.63;83.42
83152;BME280;73381;58.502;8.624;2023-12-07T07:55:21;101055.38;;;-5.07;83.92
83152;BME280;73381;58.502;8.624;2023-12-07T07:58:23;101105.84;;;-4.56;82.93
83152;BME280;73381;58.502;8.624;2023-12-07T08:01:26;101023.63;;;-5.09;83.42
83152;BME280;73381;58.502;8.624;2023-12-07T08:04:28;101100.72;;;-4.60;83.72
83152;BME280;73381;58.502;8.624;2023-12-07T08:07:31;101107.56;;;-4.50;83.35
83152;BME280;73381;58.502;8.624;2023-12-07T08:10:32;101117.84;;;-4.53;83.17
83152;BME280;73381;58.502;8.624;2023-12-07T08:13:54;101098.06;;;-4.45;82.11
83152;BME280;73381;58.502;8.624;2023-12-07T08:16:57;101104.91;;;-4.39;83.07
83152;BME280;73381;58.502;8.624;2023-12-07T08:19:59;101109.19;;;-4.38;82.27
83152;BME280;73381;58.502;8.624;2023-12-07T08:23:01;101104.03;;;-4.40;83.76
83152;BME280;73381;58.502;8.624;2023-12-07T08:26:03;101047.56;;;-4.84;82.84
83152;BME280;73381;58.502;8.624;2023-12-07T08:29:05;101111.00;;;-4.54;82.61
83152;BME280;73381;58.502;8.624;2023-12-07T08:32:12;101129.00;;;-4.46;83.76
83152;BME280;73381;58.502;8.624;2023-12-07T08:35:13;101133.22;;;-4.36;82.35
83152;BME280;73381;58.502;8.624;2023-12-07T08:38:15;101103.28;;;-4.57;82.01
83152;BME280;73381;58.502;8.624;2023-12-07T08:41:17;101140.13;;;-4.34;82.01
83152;BME280;73381;58.502;8.624;2023-12-07T08:44:19;101138.34;;;-4.24;82.34
83152;BME280;73381;58.502;8.624;2023-12-07T08:47:23;101104.03;;;-4.34;82.33
83152;BME280;73381;58.502;8.624;2023-12-07T08:50:25;101136.56;;;-4.14;82.16
83152;BME280;73381;58.502;8.624;2023-12-07T08:53:27;101143.41;;;-4.07;82.12
83152;BME280;73381;58.502;8.624;2023-12-07T08:56:28;101126.13;;;-3.98;81.50
83152;BME280;73381;58.502;8.624;2023-12-07T08:59:30;101124.38;;;-3.91;80.79
83152;BME280;73381;58.502;8.624;2023-12-07T09:02:33;101120.03;;;-3.86;81.73
83152;BME280;73381;58.502;8.624;2023-12-07T09:05:47;101127.75;;;-3.80;80.49
83152;BME280;73381;58.502;8.624;2023-12-07T09:08:49;101113.97;;;-3.79;81.76
83152;BME280;73381;58.502;8.624;2023-12-07T09:11:51;101113.13;;;-3.79;80.90
83152;BME280;73381;58.502;8.624;2023-12-07T09:14:53;101121.66;;;-3.73;82.00
83152;BME280;73381;58.502;8.624;2023-12-07T09:17:56;101118.16;;;-3.66;81.67
83152;BME280;73381;58.502;8.624;2023-12-07T09:20:58;101125.91;;;-3.67;82.09
83152;BME280;73381;58.502;8.624;2023-12-07T09:24:00;101117.28;;;-3.66;80.76
83152;BME280;73381;58.502;8.624;2023-12-07T09:27:02;101126.75;;;-3.64;82.00
83152;BME280;73381;58.502;8.624;2023-12-07T09:30:05;101121.59;;;-3.68;81.36
83152;BME280;73381;58.502;8.624;2023-12-07T09:33:08;101125.88;;;-3.63;80.36
83152;BME280;73381;58.502;8.624;2023-12-07T09:36:10;101133.56;;;-3.56;80.42
83152;BME280;73381;58.502;8.624;2023-12-07T09:39:12;101000.03;;;-4.37;81.06
83152;BME280;73381;58.502;8.624;2023-12-07T09:42:14;101055.66;;;-4.01;81.59
83152;BME280;73381;58.502;8.624;2023-12-07T09:45:20;101122.44;;;-3.62;81.40
83152;BME280;73381;58.502;8.624;2023-12-07T09:48:24;101111.28;;;-3.70;81.84
83152;BME280;73381;58.502;8.624;2023-12-07T09:51:27;101134.47;;;-3.62;81.52
83152;BME280;73381;58.502;8.624;2023-12-07T09:54:33;101116.41;;;-3.62;81.05
83152;BME280;73381;58.502;8.624;2023-12-07T09:57:36;101130.09;;;-3.54;81.69
83152;BME280;73381;58.502;8.624;2023-12-07T10:00:39;101072.78;;;-3.93;82.17
83152;BME280;73381;58.502;8.624;2023-12-07T10:03:42;101135.19;;;-3.45;82.72
83152;BME280;73381;58.502;8.624;2023-12-07T10:06:44;101114.59;;;-3.51;81.20
83152;BME280;73381;58.502;8.624;2023-12-07T10:09:46;101064.88;;;-3.73;81.90
83152;BME280;73381;58.502;8.624;2023-12-07T10:12:52;101152.22;;;-3.25;81.59
83152;BME280;73381;58.502;8.624;2023-12-07T10:16:05;101135.91;;;-3.29;82.01
83152;BME280;73381;58.502;8.624;2023-12-07T10:19:16;101139.28;;;-3.24;81.58
83152;BME280;73381;58.502;8.624;2023-12-07T10:22:33;101141.88;;;-3.24;81.72
83152;BME280;73381;58.502;8.624;2023-12-07T10:25:38;101082.88;;;-3.65;81.74
83152;BME280;73381;58.502;8.624;2023-12-07T10:28:40;101132.44;;;-3.28;81.27
83152;BME280;73381;58.502;8.624;2023-12-07T10:31:43;101146.19;;;-3.26;82.58
83152;BME280;73381;58.502;8.624;2023-12-07T10:34:46;101147.03;;;-3.21;82.13
83152;BME280;73381;58.502;8.624;2023-12-07T10:37:48;101044.28;;;-3.79;81.39
83152;BME280;73381;58.502;8.624;2023-12-07T10:41:03;101117.75;;;-3.20;80.95
83152;BME280;73381;58.502;8.624;2023-12-07T10:44:06;101074.16;;;-3.53;81.51
83152;BME280;73381;58.502;8.624;2023-12-07T10:47:10;101124.56;;;-3.14;81.35
83152;BME280;73381;58.502;8.624;2023-12-07T10:50:22;101130.53;;;-3.11;81.77
83152;BME280;73381;58.502;8.624;2023-12-07T10:53:27;101132.19;;;-3.04;80.98
83152;BME280;73381;58.502;8.624;2023-12-07T10:56:33;101130.47;;;-3.03;80.39
83152;BME280;73381;58.502;8.624;2023-12-07T10:59:39;101124.41;;;-2.99;80.47
83152;BME280;73381;58.502;8.624;2023-12-07T11:02:42;101115.81;;;-3.03;80.86
83152;BME280;73381;58.502;8.624;2023-12-07T11:05:47;101129.53;;;-2.96;81.46
83152;BME280;73381;58.502;8.624;2023-12-07T11:08:51;101117.56;;;-3.03;80.82
83152;BME280;73381;58.502;8.624;2023-12-07T11:12:00;101129.56;;;-2.99;80.20
83152;BME280;73381;58.502;8.624;2023-12-07T11:15:05;101126.09;;;-2.96;80.21
83152;BME280;73381;58.502;8.624;2023-12-07T11:18:07;101133.78;;;-2.90;80.45
83152;BME280;73381;58.502;8.624;2023-12-07T11:21:10;101118.34;;;-2.95;81.49
83152;BME280;73381;58.502;8.624;2023-12-07T11:24:16;101090.09;;;-3.13;81.61
83152;BME280;73381;58.502;8.624;2023-12-07T11:27:18;101117.47;;;-2.94;81.26
83152;BME280;73381;58.502;8.624;2023-12-07T11:30:19;101117.47;;;-2.97;80.44
83152;BME280;73381;58.502;8.624;2023-12-07T11:33:21;101112.41;;;-3.05;81.00
83152;BME280;73381;58.502;8.624;2023-12-07T11:36:25;101109.81;;;-3.03;82.52
83152;BME280;73381;58.502;8.624;2023-12-07T11:39:28;101104.66;;;-3.05;82.55
83152;BME280;73381;58.502;8.624;2023-12-07T11:42:31;101104.69;;;-3.08;81.79
83152;BME280;73381;58.502;8.624;2023-12-07T11:45:39;100962.66;;;-3.89;82.82
83152;BME280;73381;58.502;8.624;2023-12-07T11:48:48;101102.00;;;-2.99;82.60
83152;BME280;73381;58.502;8.624;2023-12-07T11:51:51;101089.06;;;-2.99;81.55
83152;BME280;73381;58.502;8.624;2023-12-07T11:54:53;101088.16;;;-2.93;82.64
83152;BME280;73381;58.502;8.624;2023-12-07T11:57:55;101096.75;;;-2.91;81.34
83152;BME280;73381;58.502;8.624;2023-12-07T12:00:57;101095.06;;;-2.96;82.83
83152;BME280;73381;58.502;8.624;2023-12-07T12:03:59;101092.50;;;-2.96;81.55
83152;BME280;73381;58.502;8.624;2023-12-07T12:07:05;101096.72;;;-2.89;81.91
83152;BME280;73381;58.502;8.624;2023-12-07T12:10:07;101102.72;;;-2.87;82.45
83152;BME280;73381;58.502;8.624;2023-12-07T12:13:09;101084.75;;;-2.95;81.99
83152;BME280;73381;58.502;8.624;2023-12-07T12:16:11;101006.03;;;-3.42;82.52
83152;BME280;73381;58.502;8.624;2023-12-07T12:19:13;101021.50;;;-3.39;81.55
83152;BME280;73381;58.502;8.624;2023-12-07T12:22:28;101032.69;;;-3.38;81.99
83152;BME280;73381;58.502;8.624;2023-12-07T12:25:31;101104.53;;;-2.92;81.08
83152;BME280;73381;58.502;8.624;2023-12-07T12:28:33;101101.03;;;-2.88;82.27
83152;BME280;73381;58.502;8.624;2023-12-07T12:31:35;101003.56;;;-3.52;82.33
83152;BME280;73381;58.502;8.624;2023-12-07T12:34:38;101085.59;;;-2.94;81.67
83152;BME280;73381;58.502;8.624;2023-12-07T12:37:41;101076.09;;;-2.92;81.07
83152;BME280;73381;58.502;8.624;2023-12-07T12:40:43;101040.13;;;-3.11;81.73
83152;BME280;73381;58.502;8.624;2023-12-07T12:43:45;101049.47;;;-3.01;82.80
83152;BME280;73381;58.502;8.624;2023-12-07T12:46:48;101058.78;;;-2.87;81.34
83152;BME280;73381;58.502;8.624;2023-12-07T12:49:50;101056.22;;;-2.89;81.40
83152;BME280;73381;58.502;8.624;2023-12-07T12:52:54;101043.47;;;-3.01;82.30
83152;BME280;73381;58.502;8.624;2023-12-07T12:55:55;101056.16;;;-2.84;81.69
83152;BME280;73381;58.502;8.624;2023-12-07T12:58:59;101063.03;;;-2.83;82.12
83152;BME280;73381;58.502;8.624;2023-12-07T13:02:06;101048.34;;;-2.78;81.72
83152;BME280;73381;58.502;8.624;2023-12-07T13:05:08;101044.78;;;-2.71;80.54
83152;BME280;73381;58.502;8.624;2023-12-07T13:08:11;101013.91;;;-2.82;80.92
83152;BME280;73381;58.502;8.624;2023-12-07T13:11:16;101048.22;;;-2.69;81.02
83152;BME280;73381;58.502;8.624;2023-12-07T13:14:18;101042.16;;;-2.68;80.73
83152;BME280;73381;58.502;8.624;2023-12-07T13:17:21;101040.50;;;-2.72;80.21
83152;BME280;73381;58.502;8.624;2023-12-07T13:20:23;101048.31;;;-2.75;80.98
83152;BME280;73381;58.502;8.624;2023-12-07T13:23:26;101025.19;;;-2.87;81.57
83152;BME280;73381;58.502;8.624;2023-12-07T13:26:28;100959.34;;;-3.22;81.81
83152;BME280;73381;58.502;8.624;2023-12-07T13:29:30;101011.50;;;-2.92;82.15
83152;BME280;73381;58.502;8.624;2023-12-07T13:32:37;101013.16;;;-2.88;80.62
83152;BME280;73381;58.502;8.624;2023-12-07T13:35:39;101017.41;;;-2.86;80.92
83152;BME280;73381;58.502;8.624;2023-12-07T13:38:43;100999.44;;;-2.93;80.96
83152;BME280;73381;58.502;8.624;2023-12-07T13:41:45;100997.72;;;-2.93;81.71
83152;BME280;73381;58.502;8.624;2023-12-07T13:44:46;100937.06;;;-3.31;82.10
83152;BME280;73381;58.502;8.624;2023-12-07T13:47:48;100995.16;;;-2.94;81.88
83152;BME280;73381;58.502;8.624;2023-12-07T13:50:51;100987.31;;;-2.88;82.61
83152;BME280;73381;58.502;8.624;2023-12-07T13:53:55;100975.38;;;-2.95;81.97
83152;BME280;73381;58.502;8.624;2023-12-07T13:57:01;100984.75;;;-2.90;82.83
83152;BME280;73381;58.502;8.624;2023-12-07T14:00:03;100986.41;;;-2.86;82.07
83152;BME280;73381;58.502;8.624;2023-12-07T14:03:06;100986.38;;;-2.84;81.89
83152;BME280;73381;58.502;8.624;2023-12-07T14:06:08;100995.03;;;-2.87;82.16
83152;BME280;73381;58.502;8.624;2023-12-07T14:09:23;100965.78;;;-2.89;81.30
83152;BME280;73381;58.502;8.624;2023-12-07T14:12:25;100951.34;;;-3.04;82.10
83152;BME280;73381;58.502;8.624;2023-12-07T14:15:28;100984.78;;;-2.91;82.55
83152;BME280;73381;58.502;8.624;2023-12-07T14:18:45;100983.03;;;-2.91;82.63
83152;BME280;73381;58.502;8.624;2023-12-07T14:22:07;100969.34;;;-2.99;81.42
83152;BME280;73381;58.502;8.624;2023-12-07T14:25:11;100982.28;;;-3.01;81.76
83152;BME280;73381;58.502;8.624;2023-12-07T14:28:13;100946.44;;;-3.25;81.29
83152;BME280;73381;58.502;8.624;2023-12-07T14:31:14;100998.53;;;-2.89;80.41
83152;BME280;73381;58.502;8.624;2023-12-07T14:34:16;100997.75;;;-2.97;81.23
83152;BME280;73381;58.502;8.624;2023-12-07T14:37:31;100991.81;;;-3.03;81.91
83152;BME280;73381;58.502;8.624;2023-12-07T14:40:34;100990.94;;;-3.02;81.39
83152;BME280;73381;58.502;8.624;2023-12-07T14:43:36;100988.47;;;-3.09;80.76
83152;BME280;73381;58.502;8.624;2023-12-07T14:46:38;100899.50;;;-3.56;82.17
83152;BME280;73381;58.502;8.624;2023-12-07T14:49:40;100979.00;;;-3.12;82.23
83152;BME280;73381;58.502;8.624;2023-12-07T14:52:41;100965.25;;;-3.14;81.97
83152;BME280;73381;58.502;8.624;2023-12-07T14:55:45;100965.28;;;-3.17;82.49
83152;BME280;73381;58.502;8.624;2023-12-07T14:58:46;100975.56;;;-3.14;82.43
83152;BME280;73381;58.502;8.624;2023-12-07T15:01:48;100972.06;;;-3.10;82.38
83152;BME280;73381;58.502;8.624;2023-12-07T15:04:50;100965.16;;;-3.06;81.57
83152;BME280;73381;58.502;8.624;2023-12-07T15:07:52;100951.44;;;-3.11;81.11
83152;BME280;73381;58.502;8.624;2023-12-07T15:10:55;100968.47;;;-2.95;81.03
83152;BME280;73381;58.502;8.624;2023-12-07T15:13:57;100961.56;;;-2.97;80.39
83152;BME280;73381;58.502;8.624;2023-12-07T15:16:59;100960.72;;;-2.98;80.04
83152;BME280;73381;58.502;8.624;2023-12-07T15:20:01;100961.63;;;-3.01;80.29
83152;BME280;73381;58.502;8.624;2023-12-07T15:23:03;100965.06;;;-3.00;80.67
83152;BME280;73381;58.502;8.624;2023-12-07T15:26:07;100978.78;;;-2.96;80.25
83152;BME280;73381;58.502;8.624;2023-12-07T15:29:09;100966.72;;;-2.96;80.38
83152;BME280;73381;58.502;8.624;2023-12-07T15:32:10;100958.09;;;-2.93;80.48
83152;BME280;73381;58.502;8.624;2023-12-07T15:35:12;100969.34;;;-2.97;80.29
83152;BME280;73381;58.502;8.624;2023-12-07T15:38:14;100959.03;;;-2.99;80.55
83152;BME280;73381;58.502;8.624;2023-12-07T15:41:17;100959.09;;;-3.04;81.18
83152;BME280;73381;58.502;8.624;2023-12-07T15:44:19;100948.81;;;-3.07;80.65
83152;BME280;73381;58.502;8.624;2023-12-07T15:47:29;100954.69;;;-2.99;80.77
83152;BME280;73381;58.502;8.624;2023-12-07T15:50:38;100934.31;;;-3.18;80.77
83152;BME280;73381;58.502;8.624;2023-12-07T15:53:40;100947.06;;;-3.06;81.81
83152;BME280;73381;58.502;8.624;2023-12-07T15:56:43;100950.50;;;-3.06;80.76